sensor_id;sensor_type;location;lat;lon;timestamp;pressure;altitude;pressure_sealevel;temperature;humidity
7836;BME280;3963;42.658;23.298;2023-09-08T00:01:18;45093.28;;;-144.44;74.89
7836;BME280;3963;42.658;23.298;2023-09-08T00:03:46;45105.13;;;-144.44;74.87
7836;BME280;3963;42.658;23.298;2023-09-08T00:06:13;45117.00;;;-144.44;75.21
7836;BME280;3963;42.658;23.298;2023-09-08T00:08:40;45089.31;;;-144.44;75.73
7836;BME280;3963;42.658;23.298;2023-09-08T00:11:08;45089.31;;;-144.44;76.21
7836;BME280;3963;42.658;23.298;2023-09-08T00:13:35;45069.56;;;-144.44;75.21
7836;BME280;3963;42.658;23.298;2023-09-08T00:16:02;45065.59;;;-144.44;73.57
7836;BME280;3963;42.658;23.298;2023-09-08T00:18:29;45109.09;;;-144.44;72.44
7836;BME280;3963;42.658;23.298;2023-09-08T00:20:57;45073.50;;;-144.44;68.91
7836;BME280;3963;42.658;23.298;2023-09-08T00:23:24;45065.59;;;-144.44;68.16
7836;BME280;3963;42.658;23.298;2023-09-08T00:25:54;45097.22;;;-144.44;67.59
7836;BME280;3963;42.658;23.298;2023-09-08T00:28:21;45077.47;;;-144.44;66.99
7836;BME280;3963;42.658;23.298;2023-09-08T00:30:48;45053.75;;;-144.44;65.74
7836;BME280;3963;42.658;23.298;2023-09-08T00:33:15;45053.75;;;-144.44;64.31
7836;BME280;3963;42.658;23.298;2023-09-08T00:35:44;45053.75;;;-144.44;64.22
7836;BME280;3963;42.658;23.298;2023-09-08T00:38:13;45073.50;;;-144.44;62.98
7836;BME280;3963;42.658;23.298;2023-09-08T00:43:58;45065.59;;;-144.44;62.27
7836;BME280;3963;42.658;23.298;2023-09-08T00:46:25;45057.69;;;-144.44;61.79
7836;BME280;3963;42.658;23.298;2023-09-08T00:48:52;45053.75;;;-144.44;61.05
7836;BME280;3963;42.658;23.298;2023-09-08T00:51:20;45053.75;;;-144.44;62.01
7836;BME280;3963;42.658;23.298;2023-09-08T00:53:51;45035.97;;;-144.44;62.42
7836;BME280;3963;42.658;23.298;2023-09-08T00:56:18;45067.59;;;-144.44;62.97
7836;BME280;3963;42.658;23.298;2023-09-08T00:58:46;45073.50;;;-144.44;62.57
7836;BME280;3963;42.658;23.298;2023-09-08T01:01:13;45069.56;;;-144.44;62.67
7836;BME280;3963;42.658;23.298;2023-09-08T01:03:41;45067.59;;;-144.44;62.10
7836;BME280;3963;42.658;23.298;2023-09-08T01:06:07;45055.72;;;-144.44;61.70
7836;BME280;3963;42.658;23.298;2023-09-08T01:08:35;45059.69;;;-144.44;62.98
7836;BME280;3963;42.658;23.298;2023-09-08T01:11:04;45049.81;;;-144.44;63.05
7836;BME280;3963;42.658;23.298;2023-09-08T01:13:31;45057.69;;;-144.44;63.71
7836;BME280;3963;42.658;23.298;2023-09-08T01:15:58;45073.50;;;-144.44;63.35
7836;BME280;3963;42.658;23.298;2023-09-08T01:18:25;45041.91;;;-144.44;62.90
7836;BME280;3963;42.658;23.298;2023-09-08T01:21:14;45053.75;;;-144.44;62.78
7836;BME280;3963;42.658;23.298;2023-09-08T01:23:59;45073.50;;;-144.44;63.21
7836;BME280;3963;42.658;23.298;2023-09-08T01:26:37;45065.59;;;-144.44;63.98
7836;BME280;3963;42.658;23.298;2023-09-08T01:29:07;45071.53;;;-144.44;64.64
7836;BME280;3963;42.658;23.298;2023-09-08T01:31:35;45045.84;;;-144.44;64.52
7836;BME280;3963;42.658;23.298;2023-09-08T01:34:03;45069.56;;;-144.44;65.43
7836;BME280;3963;42.658;23.298;2023-09-08T01:36:32;45065.59;;;-144.44;65.94
7836;BME280;3963;42.658;23.298;2023-09-08T01:38:59;45049.81;;;-144.44;66.06
7836;BME280;3963;42.658;23.298;2023-09-08T01:41:26;45063.63;;;-144.44;66.50
7836;BME280;3963;42.658;23.298;2023-09-08T01:43:55;45057.69;;;-144.44;67.17
7836;BME280;3963;42.658;23.298;2023-09-08T01:46:23;45041.91;;;-144.44;68.00
7836;BME280;3963;42.658;23.298;2023-09-08T01:48:50;45075.50;;;-144.44;68.59
7836;BME280;3963;42.658;23.298;2023-09-08T01:51:17;45081.41;;;-144.44;68.81
7836;BME280;3963;42.658;23.298;2023-09-08T01:53:43;45041.91;;;-144.44;68.94
7836;BME280;3963;42.658;23.298;2023-09-08T01:56:10;45057.69;;;-144.44;68.89
7836;BME280;3963;42.658;23.298;2023-09-08T02:01:43;45059.69;;;-144.44;68.89
7836;BME280;3963;42.658;23.298;2023-09-08T02:04:10;45053.75;;;-144.44;69.18
7836;BME280;3963;42.658;23.298;2023-09-08T02:06:36;45073.50;;;-144.44;69.70
7836;BME280;3963;42.658;23.298;2023-09-08T02:09:03;45047.81;;;-144.44;70.34
7836;BME280;3963;42.658;23.298;2023-09-08T02:11:30;45047.81;;;-144.44;71.45
7836;BME280;3963;42.658;23.298;2023-09-08T02:13:59;45057.69;;;-144.44;72.05
7836;BME280;3963;42.658;23.298;2023-09-08T02:16:25;45043.88;;;-144.44;73.03
7836;BME280;3963;42.658;23.298;2023-09-08T02:18:55;45059.69;;;-144.44;73.62
7836;BME280;3963;42.658;23.298;2023-09-08T02:21:22;45053.75;;;-144.44;73.86
7836;BME280;3963;42.658;23.298;2023-09-08T02:23:49;45059.69;;;-144.44;74.09
7836;BME280;3963;42.658;23.298;2023-09-08T02:26:17;45067.59;;;-144.44;74.36
7836;BME280;3963;42.658;23.298;2023-09-08T02:28:44;45073.50;;;-144.44;74.53
7836;BME280;3963;42.658;23.298;2023-09-08T02:31:11;45063.63;;;-144.44;74.89
7836;BME280;3963;42.658;23.298;2023-09-08T02:33:38;45065.59;;;-144.44;75.31
7836;BME280;3963;42.658;23.298;2023-09-08T02:36:08;45057.69;;;-144.44;75.88
7836;BME280;3963;42.658;23.298;2023-09-08T02:38:34;45049.81;;;-144.44;76.20
7836;BME280;3963;42.658;23.298;2023-09-08T02:41:02;45063.63;;;-144.44;76.85
7836;BME280;3963;42.658;23.298;2023-09-08T02:43:30;45067.59;;;-144.44;77.49
7836;BME280;3963;42.658;23.298;2023-09-08T02:45:57;45093.28;;;-144.44;78.12
7836;BME280;3963;42.658;23.298;2023-09-08T02:48:24;45057.69;;;-144.44;79.05
7836;BME280;3963;42.658;23.298;2023-09-08T02:50:51;45069.56;;;-144.44;80.15
7836;BME280;3963;42.658;23.298;2023-09-08T02:53:21;45045.84;;;-144.44;81.33
7836;BME280;3963;42.658;23.298;2023-09-08T02:55:48;45071.53;;;-144.44;82.24
7836;BME280;3963;42.658;23.298;2023-09-08T02:58:15;45057.69;;;-144.44;82.98
7836;BME280;3963;42.658;23.298;2023-09-08T03:00:41;45089.31;;;-144.44;83.85
7836;BME280;3963;42.658;23.298;2023-09-08T03:03:08;45067.59;;;-144.44;84.11
7836;BME280;3963;42.658;23.298;2023-09-08T03:05:35;45063.63;;;-144.44;84.66
7836;BME280;3963;42.658;23.298;2023-09-08T03:08:02;45081.41;;;-144.44;85.09
7836;BME280;3963;42.658;23.298;2023-09-08T03:10:34;45091.28;;;-144.44;85.77
7836;BME280;3963;42.658;23.298;2023-09-08T03:13:01;45069.56;;;-144.44;86.28
7836;BME280;3963;42.658;23.298;2023-09-08T03:15:28;45075.50;;;-144.44;86.72
7836;BME280;3963;42.658;23.298;2023-09-08T03:17:54;45057.69;;;-144.44;87.14
7836;BME280;3963;42.658;23.298;2023-09-08T03:20:22;45101.19;;;-144.44;87.74
7836;BME280;3963;42.658;23.298;2023-09-08T03:22:49;45105.13;;;-144.44;87.85
7836;BME280;3963;42.658;23.298;2023-09-08T03:25:16;45113.03;;;-144.44;88.48
7836;BME280;3963;42.658;23.298;2023-09-08T03:27:44;45097.22;;;-144.44;88.79
7836;BME280;3963;42.658;23.298;2023-09-08T03:30:12;45113.03;;;-144.44;89.42
7836;BME280;3963;42.658;23.298;2023-09-08T03:32:39;45136.75;;;-144.44;90.09
7836;BME280;3963;42.658;23.298;2023-09-08T03:35:08;45117.00;;;-144.44;90.51
7836;BME280;3963;42.658;23.298;2023-09-08T03:37:35;45164.41;;;-144.44;91.02
7836;BME280;3963;42.658;23.298;2023-09-08T03:40:03;45136.75;;;-144.44;91.01
7836;BME280;3963;42.658;23.298;2023-09-08T03:42:32;45156.50;;;-144.44;91.15
7836;BME280;3963;42.658;23.298;2023-09-08T03:45:01;45152.56;;;-144.44;91.31
7836;BME280;3963;42.658;23.298;2023-09-08T03:47:28;45160.47;;;-144.44;92.18
7836;BME280;3963;42.658;23.298;2023-09-08T03:49:55;45198.00;;;-144.44;92.49
7836;BME280;3963;42.658;23.298;2023-09-08T03:52:22;45203.94;;;-144.44;93.05
7836;BME280;3963;42.658;23.298;2023-09-08T03:54:49;45192.09;;;-144.44;93.99
7836;BME280;3963;42.658;23.298;2023-09-08T03:57:16;45201.97;;;-144.44;94.50
7836;BME280;3963;42.658;23.298;2023-09-08T03:59:43;45205.91;;;-144.44;94.57
7836;BME280;3963;42.658;23.298;2023-09-08T04:02:11;45219.75;;;-144.44;94.57
7836;BME280;3963;42.658;23.298;2023-09-08T04:04:39;45229.63;;;-144.44;94.28
7836;BME280;3963;42.658;23.298;2023-09-08T04:07:05;45223.72;;;-144.44;94.22
7836;BME280;3963;42.658;23.298;2023-09-08T04:09:32;45221.72;;;-144.44;94.16
7836;BME280;3963;42.658;23.298;2023-09-08T04:11:59;45219.75;;;-144.44;94.08
7836;BME280;3963;42.658;23.298;2023-09-08T04:14:26;45233.59;;;-144.44;94.50
7836;BME280;3963;42.658;23.298;2023-09-08T04:16:55;45239.50;;;-144.44;94.31
7836;BME280;3963;42.658;23.298;2023-09-08T04:19:24;45253.34;;;-144.44;94.55
7836;BME280;3963;42.658;23.298;2023-09-08T04:21:51;45263.22;;;-144.44;94.48
7836;BME280;3963;42.658;23.298;2023-09-08T04:24:18;45271.13;;;-144.44;94.67
7836;BME280;3963;42.658;23.298;2023-09-08T04:26:45;45298.81;;;-144.44;94.91
7836;BME280;3963;42.658;23.298;2023-09-08T04:29:12;45273.13;;;-144.44;94.93
7836;BME280;3963;42.658;23.298;2023-09-08T04:31:39;45279.03;;;-144.44;95.07
7836;BME280;3963;42.658;23.298;2023-09-08T04:34:05;45271.13;;;-144.44;95.18
7836;BME280;3963;42.658;23.298;2023-09-08T04:36:36;45290.91;;;-144.44;95.20
7836;BME280;3963;42.658;23.298;2023-09-08T04:39:03;45306.72;;;-144.44;95.34
7836;BME280;3963;42.658;23.298;2023-09-08T04:41:30;45316.59;;;-144.44;95.18
7836;BME280;3963;42.658;23.298;2023-09-08T04:43:57;45312.63;;;-144.44;95.02
7836;BME280;3963;42.658;23.298;2023-09-08T04:46:24;45294.84;;;-144.44;94.68
7836;BME280;3963;42.658;23.298;2023-09-08T04:48:51;45284.97;;;-144.44;94.46
7836;BME280;3963;42.658;23.298;2023-09-08T04:51:18;45283.00;;;-144.44;94.37
7836;BME280;3963;42.658;23.298;2023-09-08T04:53:46;45267.19;;;-144.44;93.88
7836;BME280;3963;42.658;23.298;2023-09-08T04:56:13;45263.22;;;-144.44;93.52
7836;BME280;3963;42.658;23.298;2023-09-08T04:58:40;45239.50;;;-144.44;93.30
7836;BME280;3963;42.658;23.298;2023-09-08T05:01:07;45243.47;;;-144.44;92.58
7836;BME280;3963;42.658;23.298;2023-09-08T05:03:33;45245.44;;;-144.44;92.31
7836;BME280;3963;42.658;23.298;2023-09-08T05:06:00;45247.41;;;-144.44;91.69
7836;BME280;3963;42.658;23.298;2023-09-08T05:08:27;45221.72;;;-144.44;90.82
7836;BME280;3963;42.658;23.298;2023-09-08T05:10:56;45194.06;;;-144.44;90.27
7836;BME280;3963;42.658;23.298;2023-09-08T05:13:22;45217.78;;;-144.44;89.54
7836;BME280;3963;42.658;23.298;2023-09-08T05:15:52;45164.41;;;-144.44;87.00
7836;BME280;3963;42.658;23.298;2023-09-08T05:18:25;45158.50;;;-144.44;86.63
7836;BME280;3963;42.658;23.298;2023-09-08T05:20:52;45162.44;;;-144.44;85.18
7836;BME280;3963;42.658;23.298;2023-09-08T05:23:19;45113.03;;;-144.44;83.27
7836;BME280;3963;42.658;23.298;2023-09-08T05:25:47;45113.03;;;-144.44;81.71
7836;BME280;3963;42.658;23.298;2023-09-08T05:28:15;45105.13;;;-144.44;80.52
7836;BME280;3963;42.658;23.298;2023-09-08T05:30:42;45109.09;;;-144.44;79.65
7836;BME280;3963;42.658;23.298;2023-09-08T05:33:09;45099.19;;;-144.44;78.93
7836;BME280;3963;42.658;23.298;2023-09-08T05:35:36;45095.25;;;-144.44;78.61
7836;BME280;3963;42.658;23.298;2023-09-08T05:38:03;45120.94;;;-144.44;77.81
7836;BME280;3963;42.658;23.298;2023-09-08T05:40:30;45105.13;;;-144.44;77.89
7836;BME280;3963;42.658;23.298;2023-09-08T05:42:57;45103.16;;;-144.44;77.31
7836;BME280;3963;42.658;23.298;2023-09-08T05:45:25;45115.00;;;-144.44;76.75
7836;BME280;3963;42.658;23.298;2023-09-08T05:47:52;45124.91;;;-144.44;73.99
7836;BME280;3963;42.658;23.298;2023-09-08T05:50:19;45097.22;;;-144.44;73.59
7836;BME280;3963;42.658;23.298;2023-09-08T05:52:46;45057.69;;;-144.44;70.13
7836;BME280;3963;42.658;23.298;2023-09-08T05:55:13;45091.28;;;-144.44;68.75
7836;BME280;3963;42.658;23.298;2023-09-08T05:57:40;45103.16;;;-144.44;66.89
7836;BME280;3963;42.658;23.298;2023-09-08T06:00:07;45101.19;;;-144.44;67.09
7836;BME280;3963;42.658;23.298;2023-09-08T06:02:36;45109.09;;;-144.44;66.83
7836;BME280;3963;42.658;23.298;2023-09-08T06:05:03;45093.28;;;-144.44;67.32
7836;BME280;3963;42.658;23.298;2023-09-08T06:07:30;45107.09;;;-144.44;67.80
7836;BME280;3963;42.658;23.298;2023-09-08T06:09:57;45089.31;;;-144.44;67.68
7836;BME280;3963;42.658;23.298;2023-09-08T06:12:24;45109.09;;;-144.44;67.04
7836;BME280;3963;42.658;23.298;2023-09-08T06:14:51;45107.09;;;-144.44;65.39
7836;BME280;3963;42.658;23.298;2023-09-08T06:17:18;45101.19;;;-144.44;65.47
7836;BME280;3963;42.658;23.298;2023-09-08T06:19:46;45118.97;;;-144.44;64.42
7836;BME280;3963;42.658;23.298;2023-09-08T06:22:13;45091.28;;;-144.44;63.45
7836;BME280;3963;42.658;23.298;2023-09-08T06:24:39;45115.00;;;-144.44;63.42
7836;BME280;3963;42.658;23.298;2023-09-08T06:27:07;45138.72;;;-144.44;62.20
7836;BME280;3963;42.658;23.298;2023-09-08T06:29:34;45107.09;;;-144.44;61.04
7836;BME280;3963;42.658;23.298;2023-09-08T06:32:03;45111.06;;;-144.44;61.11
7836;BME280;3963;42.658;23.298;2023-09-08T06:34:30;45132.78;;;-144.44;60.15
7836;BME280;3963;42.658;23.298;2023-09-08T06:37:00;45107.09;;;-144.44;58.85
7836;BME280;3963;42.658;23.298;2023-09-08T06:39:27;45118.97;;;-144.44;59.07
7836;BME280;3963;42.658;23.298;2023-09-08T06:41:56;45118.97;;;-144.44;57.14
7836;BME280;3963;42.658;23.298;2023-09-08T06:44:23;45130.81;;;-144.44;56.23
7836;BME280;3963;42.658;23.298;2023-09-08T06:46:50;45115.00;;;-144.44;54.60
7836;BME280;3963;42.658;23.298;2023-09-08T06:49:17;45113.03;;;-144.44;53.35
7836;BME280;3963;42.658;23.298;2023-09-08T06:51:43;45136.75;;;-144.44;51.43
7836;BME280;3963;42.658;23.298;2023-09-08T06:54:13;45126.88;;;-144.44;51.84
7836;BME280;3963;42.658;23.298;2023-09-08T06:56:40;45118.97;;;-144.44;51.54
7836;BME280;3963;42.658;23.298;2023-09-08T06:59:06;45150.59;;;-144.44;51.09
7836;BME280;3963;42.658;23.298;2023-09-08T07:01:34;45144.66;;;-144.44;51.03
7836;BME280;3963;42.658;23.298;2023-09-08T07:04:01;45124.91;;;-144.44;49.70
7836;BME280;3963;42.658;23.298;2023-09-08T07:06:28;45128.84;;;-144.44;49.03
7836;BME280;3963;42.658;23.298;2023-09-08T07:08:55;45128.84;;;-144.44;49.42
7836;BME280;3963;42.658;23.298;2023-09-08T07:11:23;45158.50;;;-144.44;48.88
7836;BME280;3963;42.658;23.298;2023-09-08T07:13:49;45164.41;;;-144.44;48.81
7836;BME280;3963;42.658;23.298;2023-09-08T07:16:16;45144.66;;;-144.44;47.26
7836;BME280;3963;42.658;23.298;2023-09-08T07:18:43;45180.22;;;-144.44;46.09
7836;BME280;3963;42.658;23.298;2023-09-08T07:21:10;45162.44;;;-144.44;45.78
7836;BME280;3963;42.658;23.298;2023-09-08T07:23:37;45152.56;;;-144.44;45.74
7836;BME280;3963;42.658;23.298;2023-09-08T07:26:03;45178.25;;;-144.44;45.36
7836;BME280;3963;42.658;23.298;2023-09-08T07:28:32;45168.38;;;-144.44;45.28
7836;BME280;3963;42.658;23.298;2023-09-08T07:31:03;45160.47;;;-144.44;44.74
7836;BME280;3963;42.658;23.298;2023-09-08T07:33:30;45162.44;;;-144.44;44.39
7836;BME280;3963;42.658;23.298;2023-09-08T07:35:57;45174.28;;;-144.44;44.43
7836;BME280;3963;42.658;23.298;2023-09-08T07:38:24;45196.03;;;-144.44;44.38
7836;BME280;3963;42.658;23.298;2023-09-08T07:40:51;45194.06;;;-144.44;43.96
7836;BME280;3963;42.658;23.298;2023-09-08T07:43:17;45180.22;;;-144.44;43.81
7836;BME280;3963;42.658;23.298;2023-09-08T07:45:47;45203.94;;;-144.44;43.90
7836;BME280;3963;42.658;23.298;2023-09-08T07:48:13;45176.28;;;-144.44;43.22
7836;BME280;3963;42.658;23.298;2023-09-08T07:50:40;45209.88;;;-144.44;43.09
7836;BME280;3963;42.658;23.298;2023-09-08T07:53:07;45231.59;;;-144.44;42.49
7836;BME280;3963;42.658;23.298;2023-09-08T07:55:34;45203.94;;;-144.44;42.24
7836;BME280;3963;42.658;23.298;2023-09-08T07:58:01;45211.84;;;-144.44;42.57
7836;BME280;3963;42.658;23.298;2023-09-08T08:00:29;45223.72;;;-144.44;42.33
7836;BME280;3963;42.658;23.298;2023-09-08T08:02:59;45245.44;;;-144.44;42.09
7836;BME280;3963;42.658;23.298;2023-09-08T08:05:26;45239.50;;;-144.44;41.17
7836;BME280;3963;42.658;23.298;2023-09-08T08:07:52;45200.00;;;-144.44;42.20
7836;BME280;3963;42.658;23.298;2023-09-08T08:10:19;45267.19;;;-144.44;41.77
7836;BME280;3963;42.658;23.298;2023-09-08T08:12:46;45237.53;;;-144.44;42.05
7836;BME280;3963;42.658;23.298;2023-09-08T08:15:13;45215.81;;;-144.44;42.36
7836;BME280;3963;42.658;23.298;2023-09-08T08:17:40;45235.56;;;-144.44;41.90
7836;BME280;3963;42.658;23.298;2023-09-08T08:20:11;45211.84;;;-144.44;40.89
7836;BME280;3963;42.658;23.298;2023-09-08T08:22:42;45259.28;;;-144.44;41.15
7836;BME280;3963;42.658;23.298;2023-09-08T08:25:09;45233.59;;;-144.44;40.22
7836;BME280;3963;42.658;23.298;2023-09-08T08:27:38;45215.81;;;-144.44;41.17
7836;BME280;3963;42.658;23.298;2023-09-08T08:30:06;45213.81;;;-144.44;41.33
7836;BME280;3963;42.658;23.298;2023-09-08T08:32:33;45239.50;;;-144.44;40.00
7836;BME280;3963;42.658;23.298;2023-09-08T08:35:00;45283.00;;;-144.44;37.43
7836;BME280;3963;42.658;23.298;2023-09-08T08:37:28;45286.94;;;-144.44;37.49
7836;BME280;3963;42.658;23.298;2023-09-08T08:39:55;45338.31;;;-144.44;36.13
7836;BME280;3963;42.658;23.298;2023-09-08T08:42:22;45352.16;;;-144.44;35.88
7836;BME280;3963;42.658;23.298;2023-09-08T08:44:49;45340.31;;;-144.44;35.33
7836;BME280;3963;42.658;23.298;2023-09-08T08:47:17;45332.41;;;-144.44;35.39
7836;BME280;3963;42.658;23.298;2023-09-08T08:49:46;45358.09;;;-144.44;34.74
7836;BME280;3963;42.658;23.298;2023-09-08T08:52:15;45336.34;;;-144.44;34.78
7836;BME280;3963;42.658;23.298;2023-09-08T08:54:46;45346.22;;;-144.44;34.51
7836;BME280;3963;42.658;23.298;2023-09-08T08:57:14;45385.75;;;-144.44;34.40
7836;BME280;3963;42.658;23.298;2023-09-08T08:59:41;45373.91;;;-144.44;34.06
7836;BME280;3963;42.658;23.298;2023-09-08T09:02:09;45373.91;;;-144.44;33.59
7836;BME280;3963;42.658;23.298;2023-09-08T09:04:38;45369.94;;;-144.44;33.45
7836;BME280;3963;42.658;23.298;2023-09-08T09:07:07;45371.94;;;-144.44;33.49
7836;BME280;3963;42.658;23.298;2023-09-08T09:09:34;45417.38;;;-144.44;32.15
7836;BME280;3963;42.658;23.298;2023-09-08T09:12:05;45395.66;;;-144.44;32.42
7836;BME280;3963;42.658;23.298;2023-09-08T09:14:32;45366.00;;;-144.44;33.34
7836;BME280;3963;42.658;23.298;2023-09-08T09:17:00;45338.31;;;-144.44;33.94
7836;BME280;3963;42.658;23.298;2023-09-08T09:19:30;45316.59;;;-144.44;34.58
7836;BME280;3963;42.658;23.298;2023-09-08T09:21:58;45322.53;;;-144.44;34.33
7836;BME280;3963;42.658;23.298;2023-09-08T09:24:30;45316.59;;;-144.44;34.44
7836;BME280;3963;42.658;23.298;2023-09-08T09:26:57;45362.03;;;-144.44;33.50
7836;BME280;3963;42.658;23.298;2023-09-08T09:29:27;45336.34;;;-144.44;33.96
7836;BME280;3963;42.658;23.298;2023-09-08T09:31:56;45310.66;;;-144.44;34.58
7836;BME280;3963;42.658;23.298;2023-09-08T09:34:24;45326.47;;;-144.44;34.36
7836;BME280;3963;42.658;23.298;2023-09-08T09:36:52;45326.47;;;-144.44;33.58
7836;BME280;3963;42.658;23.298;2023-09-08T09:39:20;45322.53;;;-144.44;34.27
7836;BME280;3963;42.658;23.298;2023-09-08T09:41:49;45330.44;;;-144.44;34.12
7836;BME280;3963;42.658;23.298;2023-09-08T09:44:19;45322.53;;;-144.44;34.33
7836;BME280;3963;42.658;23.298;2023-09-08T09:46:51;45344.25;;;-144.44;33.37
7836;BME280;3963;42.658;23.298;2023-09-08T09:49:19;45354.13;;;-144.44;32.99
7836;BME280;3963;42.658;23.298;2023-09-08T09:51:48;45371.94;;;-144.44;33.47
7836;BME280;3963;42.658;23.298;2023-09-08T09:54:17;45324.50;;;-144.44;33.68
7836;BME280;3963;42.658;23.298;2023-09-08T09:56:44;45326.47;;;-144.44;34.15
7836;BME280;3963;42.658;23.298;2023-09-08T09:59:13;45356.13;;;-144.44;34.38
7836;BME280;3963;42.658;23.298;2023-09-08T10:01:41;45322.53;;;-144.44;34.60
7836;BME280;3963;42.658;23.298;2023-09-08T10:04:10;45296.81;;;-144.44;35.00
7836;BME280;3963;42.658;23.298;2023-09-08T10:06:40;45286.94;;;-144.44;35.22
7836;BME280;3963;42.658;23.298;2023-09-08T10:09:07;45298.81;;;-144.44;35.62
7836;BME280;3963;42.658;23.298;2023-09-08T10:11:42;45284.97;;;-144.44;36.45
7836;BME280;3963;42.658;23.298;2023-09-08T10:14:11;45279.03;;;-144.44;35.65
7836;BME280;3963;42.658;23.298;2023-09-08T10:16:39;45304.72;;;-144.44;36.13
7836;BME280;3963;42.658;23.298;2023-09-08T10:19:11;45263.22;;;-144.44;36.51
7836;BME280;3963;42.658;23.298;2023-09-08T10:21:40;45235.56;;;-144.44;36.16
7836;BME280;3963;42.658;23.298;2023-09-08T10:24:15;45263.22;;;-144.44;35.81
7836;BME280;3963;42.658;23.298;2023-09-08T10:26:51;45241.50;;;-144.44;36.32
7836;BME280;3963;42.658;23.298;2023-09-08T10:29:22;45314.63;;;-144.44;35.31
7836;BME280;3963;42.658;23.298;2023-09-08T10:31:50;45281.00;;;-144.44;35.57
7836;BME280;3963;42.658;23.298;2023-09-08T10:34:19;45279.03;;;-144.44;36.08
7836;BME280;3963;42.658;23.298;2023-09-08T10:36:47;45275.09;;;-144.44;35.70
7836;BME280;3963;42.658;23.298;2023-09-08T10:39:30;45283.00;;;-144.44;35.91
7836;BME280;3963;42.658;23.298;2023-09-08T10:42:19;45283.00;;;-144.44;35.80
7836;BME280;3963;42.658;23.298;2023-09-08T10:44:56;45251.38;;;-144.44;37.12
7836;BME280;3963;42.658;23.298;2023-09-08T10:47:24;45265.22;;;-144.44;37.38
7836;BME280;3963;42.658;23.298;2023-09-08T10:49:52;45263.22;;;-144.44;37.80
7836;BME280;3963;42.658;23.298;2023-09-08T10:52:23;45243.47;;;-144.44;38.08
7836;BME280;3963;42.658;23.298;2023-09-08T10:54:51;45269.16;;;-144.44;37.96
7836;BME280;3963;42.658;23.298;2023-09-08T10:57:20;45275.09;;;-144.44;36.59
7836;BME280;3963;42.658;23.298;2023-09-08T10:59:51;45330.44;;;-144.44;35.43
7836;BME280;3963;42.658;23.298;2023-09-08T11:02:38;45324.50;;;-144.44;35.41
7836;BME280;3963;42.658;23.298;2023-09-08T11:05:09;45332.41;;;-144.44;35.70
7836;BME280;3963;42.658;23.298;2023-09-08T11:07:37;45257.31;;;-144.44;36.50
7836;BME280;3963;42.658;23.298;2023-09-08T11:10:05;45259.28;;;-144.44;37.48
7836;BME280;3963;42.658;23.298;2023-09-08T11:12:32;45261.25;;;-144.44;37.75
7836;BME280;3963;42.658;23.298;2023-09-08T11:14:59;45257.31;;;-144.44;37.58
7836;BME280;3963;42.658;23.298;2023-09-08T11:17:27;45259.28;;;-144.44;38.57
7836;BME280;3963;42.658;23.298;2023-09-08T11:19:54;45255.31;;;-144.44;38.90
7836;BME280;3963;42.658;23.298;2023-09-08T11:22:24;45251.38;;;-144.44;38.75
7836;BME280;3963;42.658;23.298;2023-09-08T11:24:52;45259.28;;;-144.44;38.50
7836;BME280;3963;42.658;23.298;2023-09-08T11:27:22;45277.06;;;-144.44;38.36
7836;BME280;3963;42.658;23.298;2023-09-08T11:29:51;45233.59;;;-144.44;38.41
7836;BME280;3963;42.658;23.298;2023-09-08T11:32:17;45243.47;;;-144.44;38.40
7836;BME280;3963;42.658;23.298;2023-09-08T11:34:44;45233.59;;;-144.44;38.79
7836;BME280;3963;42.658;23.298;2023-09-08T11:37:12;45219.75;;;-144.44;38.83
7836;BME280;3963;42.658;23.298;2023-09-08T11:39:42;45221.72;;;-144.44;39.01
7836;BME280;3963;42.658;23.298;2023-09-08T11:42:10;45223.72;;;-144.44;39.52
7836;BME280;3963;42.658;23.298;2023-09-08T11:44:37;45243.47;;;-144.44;39.50
7836;BME280;3963;42.658;23.298;2023-09-08T11:47:06;45235.56;;;-144.44;38.97
7836;BME280;3963;42.658;23.298;2023-09-08T11:49:35;45251.38;;;-144.44;38.43
7836;BME280;3963;42.658;23.298;2023-09-08T11:52:03;45290.91;;;-144.44;37.67
7836;BME280;3963;42.658;23.298;2023-09-08T11:54:31;45265.22;;;-144.44;37.37
7836;BME280;3963;42.658;23.298;2023-09-08T11:57:00;45273.13;;;-144.44;36.83
7836;BME280;3963;42.658;23.298;2023-09-08T11:59:27;45255.31;;;-144.44;37.55
7836;BME280;3963;42.658;23.298;2023-09-08T12:01:55;45267.19;;;-144.44;37.91
7836;BME280;3963;42.658;23.298;2023-09-08T12:04:23;45273.13;;;-144.44;37.66
7836;BME280;3963;42.658;23.298;2023-09-08T12:06:52;45215.81;;;-144.44;37.71
7836;BME280;3963;42.658;23.298;2023-09-08T12:09:22;45277.06;;;-144.44;37.86
7836;BME280;3963;42.658;23.298;2023-09-08T12:11:49;45239.50;;;-144.44;37.54
7836;BME280;3963;42.658;23.298;2023-09-08T12:14:19;45269.16;;;-144.44;37.44
7836;BME280;3963;42.658;23.298;2023-09-08T12:16:46;45281.00;;;-144.44;36.42
7836;BME280;3963;42.658;23.298;2023-09-08T12:19:28;45288.91;;;-144.44;36.95
7836;BME280;3963;42.658;23.298;2023-09-08T12:21:58;45277.06;;;-144.44;36.70
7836;BME280;3963;42.658;23.298;2023-09-08T12:24:47;45257.31;;;-144.44;37.29
7836;BME280;3963;42.658;23.298;2023-09-08T12:27:14;45255.31;;;-144.44;37.31
7836;BME280;3963;42.658;23.298;2023-09-08T12:29:51;45281.00;;;-144.44;36.66
7836;BME280;3963;42.658;23.298;2023-09-08T12:32:18;45284.97;;;-144.44;36.58
7836;BME280;3963;42.658;23.298;2023-09-08T12:34:45;45267.19;;;-144.44;36.57
7836;BME280;3963;42.658;23.298;2023-09-08T12:37:12;45286.94;;;-144.44;36.24
7836;BME280;3963;42.658;23.298;2023-09-08T12:39:39;45273.13;;;-144.44;36.71
7836;BME280;3963;42.658;23.298;2023-09-08T12:42:06;45277.06;;;-144.44;36.07
7836;BME280;3963;42.658;23.298;2023-09-08T12:44:33;45283.00;;;-144.44;36.08
7836;BME280;3963;42.658;23.298;2023-09-08T12:47:01;45273.13;;;-144.44;36.22
7836;BME280;3963;42.658;23.298;2023-09-08T12:49:28;45286.94;;;-144.44;36.39
7836;BME280;3963;42.658;23.298;2023-09-08T12:51:55;45271.13;;;-144.44;36.47
7836;BME280;3963;42.658;23.298;2023-09-08T12:54:21;45275.09;;;-144.44;36.39
7836;BME280;3963;42.658;23.298;2023-09-08T12:56:48;45279.03;;;-144.44;36.39
7836;BME280;3963;42.658;23.298;2023-09-08T12:59:16;45263.22;;;-144.44;36.52
7836;BME280;3963;42.658;23.298;2023-09-08T13:01:43;45249.41;;;-144.44;35.83